Time;durP1;ratioP1;P1;durP2;ratioP2;P2;SDS_P1;SDS_P2;PMS_P1;PMS_P2;Temp;Humidity;BMP_temperature;BMP_pressure;BME280_temperature;BME280_humidity;BME280_pressure;Samples;Min_cycle;Max_cycle;Signal;HPM_P1;HPM_P2
2023/09/07 00:01:00;;;;;;;6.90;4.57;;;17.00;99.90;;;;;;5055873;28;20083;-87
2023/09/07 00:03:26;;;;;;;8.00;4.68;;;16.90;99.90;;;;;;5039535;28;20059;-86
2023/09/07 00:05:53;;;;;;;7.45;4.40;;;16.80;99.90;;;;;;5056567;28;20036;-86
2023/09/07 00:08:19;;;;;;;6.78;4.50;;;16.70;99.90;;;;;;5056493;28;20043;-86
2023/09/07 00:10:44;;;;;;;8.13;5.25;;;16.70;99.90;;;;;;5055817;28;20036;-86
2023/09/07 00:13:10;;;;;;;7.68;4.93;;;16.70;99.90;;;;;;5055944;28;20111;-85
2023/09/07 00:15:37;;;;;;;8.32;4.75;;;16.80;99.90;;;;;;5055472;28;20048;-86
2023/09/07 00:18:12;;;;;;;6.70;4.70;;;16.90;99.90;;;;;;5040036;28;20917;-87
2023/09/07 00:20:38;;;;;;;8.77;4.15;;;17.00;99.90;;;;;;5056118;28;20078;-86
2023/09/07 00:23:04;;;;;;;6.32;4.50;;;17.10;99.90;;;;;;5055800;28;20131;-86
2023/09/07 00:25:30;;;;;;;7.32;4.53;;;17.10;99.90;;;;;;5056357;28;20032;-87
2023/09/07 00:27:55;;;;;;;5.68;4.30;;;17.10;99.90;;;;;;5055641;28;20387;-86
2023/09/07 00:30:30;;;;;;;8.88;5.30;;;17.10;99.90;;;;;;5056523;28;20644;-87
2023/09/07 00:32:56;;;;;;;7.45;4.70;;;17.10;99.90;;;;;;5055917;28;20051;-86
2023/09/07 00:35:22;;;;;;;10.30;4.80;;;17.00;99.90;;;;;;5055976;28;20041;-87
2023/09/07 00:37:47;;;;;;;10.10;4.63;;;17.00;99.90;;;;;;5055577;28;20028;-87
2023/09/07 00:40:13;;;;;;;6.75;4.60;;;17.10;99.90;;;;;;5055824;28;20036;-86
2023/09/07 00:43:13;;;;;;;6.18;4.80;;;17.10;99.90;;;;;;5055944;28;20037;-86
2023/09/07 00:45:39;;;;;;;8.82;4.88;;;17.10;99.90;;;;;;5055542;28;20034;-87
2023/09/07 00:48:05;;;;;;;7.40;5.18;;;17.00;99.90;;;;;;5056092;28;20040;-86
2023/09/07 00:50:31;;;;;;;8.63;5.10;;;17.00;99.90;;;;;;5055832;28;20036;-86
2023/09/07 00:53:00;;;;;;;9.63;5.00;;;16.90;99.90;;;;;;5056797;28;20032;-86
2023/09/07 00:55:27;;;;;;;6.80;4.53;;;17.00;99.90;;;;;;5040275;28;20087;-87
2023/09/07 00:57:55;;;;;;;8.90;4.65;;;17.00;99.90;;;;;;5056187;28;20554;-87
2023/09/07 01:00:21;;;;;;;13.23;4.70;;;17.10;99.90;;;;;;5056782;28;20468;-89
2023/09/07 01:02:47;;;;;;;5.10;4.25;;;17.10;99.90;;;;;;5044038;28;20071;-87
2023/09/07 01:05:13;;;;;;;8.90;4.80;;;17.20;99.90;;;;;;5061200;28;20020;-87
2023/09/07 01:07:47;;;;;;;9.77;4.40;;;17.10;99.90;;;;;;5065194;28;20063;-88
2023/09/07 01:10:13;;;;;;;6.93;4.63;;;17.10;99.90;;;;;;5076501;28;20029;-87
2023/09/07 01:12:40;;;;;;;10.02;4.60;;;17.10;99.90;;;;;;5074953;28;20028;-86
2023/09/07 01:15:06;;;;;;;7.60;4.53;;;17.00;99.90;;;;;;5075112;28;20072;-87
2023/09/07 01:17:33;;;;;;;7.60;4.45;;;16.90;99.90;;;;;;5072034;28;20079;-87
2023/09/07 01:20:10;;;;;;;8.20;5.18;;;16.80;99.90;;;;;;5046715;28;20550;-87
2023/09/07 01:22:38;;;;;;;10.00;4.80;;;16.70;99.90;;;;;;5060224;28;20203;-88
2023/09/07 01:25:50;;;;;;;11.55;5.00;;;16.60;99.90;;;;;;5043287;28;20025;-87
2023/09/07 01:28:16;;;;;;;6.30;4.75;;;16.40;99.90;;;;;;5075751;28;20071;-87
2023/09/07 01:30:42;;;;;;;6.00;5.07;;;16.30;99.90;;;;;;5059294;28;20460;-87
2023/09/07 01:33:08;;;;;;;5.20;4.70;;;16.20;99.90;;;;;;5077008;28;20061;-87
2023/09/07 01:35:36;;;;;;;8.13;5.07;;;16.20;99.90;;;;;;5059067;28;20074;-87
2023/09/07 01:38:45;;;;;;;7.35;5.03;;;16.10;99.90;;;;;;5042450;28;20032;-87
2023/09/07 01:41:11;;;;;;;7.80;4.85;;;16.10;99.90;;;;;;5059136;28;20028;-87
2023/09/07 01:43:37;;;;;;;8.20;5.18;;;16.20;99.90;;;;;;5058732;28;20009;-87
2023/09/07 01:46:03;;;;;;;7.95;5.32;;;16.20;99.90;;;;;;5058628;28;20036;-87
2023/09/07 01:48:29;;;;;;;7.53;5.80;;;16.20;99.90;;;;;;5058444;28;20123;-87
2023/09/07 01:50:54;;;;;;;14.15;5.60;;;16.10;99.90;;;;;;5058868;28;20463;-87
2023/09/07 01:53:20;;;;;;;5.45;4.85;;;16.10;99.90;;;;;;5058507;28;20075;-87
2023/09/07 01:55:48;;;;;;;11.30;5.15;;;16.00;99.90;;;;;;5058134;28;20024;-87
2023/09/07 01:58:14;;;;;;;13.20;5.50;;;16.00;99.90;;;;;;5058320;28;20056;-87
2023/09/07 02:00:40;;;;;;;9.45;5.38;;;15.90;99.90;;;;;;5058382;28;20110;-87
2023/09/07 02:03:06;;;;;;;10.60;5.43;;;15.90;99.90;;;;;;5058536;28;20151;-87
2023/09/07 02:05:53;;;;;;;6.30;4.82;;;15.90;99.90;;;;;;5058269;28;20028;-87
2023/09/07 02:08:19;;;;;;;10.35;5.13;;;16.00;99.90;;;;;;5058390;28;20055;-87
2023/09/07 02:10:44;;;;;;;9.65;6.03;;;15.90;99.90;;;;;;5058302;28;20025;-87
2023/09/07 02:13:11;;;;;;;7.07;6.00;;;15.80;99.90;;;;;;5057331;28;20040;-87
2023/09/07 02:15:40;;;;;;;7.15;5.30;;;15.70;99.90;;;;;;5058594;28;20119;-87
2023/09/07 02:18:06;;;;;;;12.18;6.28;;;15.70;99.90;;;;;;5058291;28;20032;-87
2023/09/07 02:20:33;;;;;;;7.40;5.72;;;15.60;99.90;;;;;;5058015;28;20034;-87
2023/09/07 02:22:59;;;;;;;6.78;5.85;;;15.60;99.90;;;;;;5058038;28;20109;-87
2023/09/07 02:25:25;;;;;;;8.07;5.65;;;15.60;99.90;;;;;;5041228;28;20498;-87
2023/09/07 02:27:50;;;;;;;11.55;5.80;;;15.50;99.90;;;;;;5058123;28;20021;-87
2023/09/07 02:30:17;;;;;;;12.30;6.15;;;15.50;99.90;;;;;;5057549;28;20094;-86
2023/09/07 02:32:43;;;;;;;9.77;6.15;;;15.60;99.90;;;;;;5058125;28;20041;-88
2023/09/07 02:35:08;;;;;;;8.05;5.70;;;15.70;99.90;;;;;;5057924;28;20468;-88
2023/09/07 02:37:36;;;;;;;10.85;6.72;;;15.70;99.90;;;;;;5057757;28;20055;-87
2023/09/07 02:40:03;;;;;;;14.80;5.95;;;15.70;99.90;;;;;;5058156;28;20074;-87
2023/09/07 02:42:29;;;;;;;7.97;6.03;;;15.70;99.90;;;;;;5058180;28;20439;-87
2023/09/07 02:44:55;;;;;;;8.60;6.15;;;15.60;99.90;;;;;;5057512;28;20032;-87
2023/09/07 02:47:21;;;;;;;10.35;6.10;;;15.60;99.90;;;;;;5057548;28;20039;-87
2023/09/07 02:49:47;;;;;;;6.93;5.90;;;15.60;99.90;;;;;;5057538;28;20028;-87
2023/09/07 02:52:13;;;;;;;9.82;6.18;;;15.70;99.90;;;;;;5057563;28;20403;-87
2023/09/07 02:54:39;;;;;;;10.15;6.45;;;15.70;99.90;;;;;;5057422;28;20074;-87
2023/09/07 02:57:05;;;;;;;10.85;6.00;;;15.70;99.90;;;;;;5057311;28;20423;-87
2023/09/07 02:59:31;;;;;;;7.28;6.07;;;15.70;99.90;;;;;;5058003;28;20029;-87
2023/09/07 03:01:56;;;;;;;13.65;5.97;;;15.70;99.90;;;;;;5057329;28;20033;-87
2023/09/07 03:04:23;;;;;;;13.50;6.88;;;15.60;99.90;;;;;;5056763;28;20032;-87
2023/09/07 03:06:49;;;;;;;8.90;6.10;;;15.60;99.90;;;;;;5057419;28;20028;-87
2023/09/07 03:09:15;;;;;;;8.82;6.38;;;15.60;99.90;;;;;;5057312;28;20078;-87
2023/09/07 03:11:40;;;;;;;10.50;6.43;;;15.60;99.90;;;;;;5056956;28;20029;-87
2023/09/07 03:14:07;;;;;;;9.32;6.40;;;15.60;99.90;;;;;;5056843;28;20033;-88
2023/09/07 03:16:33;;;;;;;9.70;5.97;;;15.60;99.90;;;;;;5057278;28;20070;-87
2023/09/07 03:18:58;;;;;;;9.77;6.35;;;15.60;99.90;;;;;;5057100;28;20122;-86
2023/09/07 03:21:46;;;;;;;8.38;6.53;;;15.50;99.90;;;;;;5057204;28;20432;-87
2023/09/07 03:24:12;;;;;;;10.63;5.72;;;15.50;99.90;;;;;;5056851;28;20454;-87
2023/09/07 03:26:38;;;;;;;8.93;6.43;;;15.60;99.90;;;;;;5056848;28;20020;-87
2023/09/07 03:29:03;;;;;;;11.25;6.45;;;15.60;99.90;;;;;;5057200;28;20099;-88
2023/09/07 03:31:29;;;;;;;11.45;7.22;;;15.60;99.90;;;;;;5056778;28;20082;-87
2023/09/07 03:33:55;;;;;;;7.15;6.43;;;15.50;99.90;;;;;;5056999;28;20045;-87
2023/09/07 03:36:21;;;;;;;10.93;6.63;;;15.60;99.90;;;;;;5056622;28;20042;-87
2023/09/07 03:38:47;;;;;;;8.88;6.35;;;15.70;99.90;;;;;;5056907;28;20398;-88
2023/09/07 03:41:13;;;;;;;16.35;6.30;;;15.70;99.90;;;;;;5056914;28;20047;-87
2023/09/07 03:43:39;;;;;;;8.73;6.95;;;15.60;99.90;;;;;;5055921;28;20028;-86
2023/09/07 03:46:06;;;;;;;15.05;6.97;;;15.60;99.90;;;;;;5055895;28;20471;-87
2023/09/07 03:48:31;;;;;;;12.90;6.80;;;15.60;99.90;;;;;;5056079;28;20127;-87
2023/09/07 03:50:57;;;;;;;13.98;6.30;;;15.50;99.90;;;;;;5055582;28;20428;-87
2023/09/07 03:53:23;;;;;;;8.77;7.05;;;15.50;99.90;;;;;;5055828;28;20059;-87
2023/09/07 03:55:48;;;;;;;8.93;7.32;;;15.40;99.90;;;;;;5056496;28;20032;-87
2023/09/07 03:58:16;;;;;;;10.38;7.18;;;15.40;99.90;;;;;;5056455;28;20020;-87
2023/09/07 04:00:44;;;;;;;10.75;7.10;;;15.40;99.90;;;;;;5056243;28;20025;-87
2023/09/07 04:03:11;;;;;;;8.95;6.50;;;15.40;99.90;;;;;;5056105;28;20033;-87
2023/09/07 04:05:38;;;;;;;8.82;6.72;;;15.30;99.90;;;;;;5055330;28;20040;-87
2023/09/07 04:08:04;;;;;;;10.15;6.70;;;15.40;99.90;;;;;;5039127;28;20120;-87
2023/09/07 04:10:30;;;;;;;11.88;7.75;;;15.40;99.90;;;;;;5056215;28;20094;-87
2023/09/07 04:12:55;;;;;;;10.05;6.82;;;15.30;99.90;;;;;;5056332;28;20021;-87
2023/09/07 04:15:21;;;;;;;10.82;7.40;;;15.30;99.90;;;;;;5056390;28;20032;-87
2023/09/07 04:17:47;;;;;;;12.02;7.07;;;15.30;99.90;;;;;;5056338;28;20523;-87
2023/09/07 04:20:12;;;;;;;8.63;6.80;;;15.30;99.90;;;;;;5055850;28;20055;-87
2023/09/07 04:22:40;;;;;;;11.43;7.10;;;15.30;99.90;;;;;;5056544;28;20063;-86
2023/09/07 04:25:06;;;;;;;11.52;7.45;;;15.30;99.90;;;;;;5040150;28;20126;-87
2023/09/07 04:27:32;;;;;;;10.75;7.45;;;15.30;99.90;;;;;;5040327;28;20431;-87
2023/09/07 04:29:59;;;;;;;9.07;7.03;;;15.50;99.90;;;;;;5056476;28;20028;-87
2023/09/07 04:32:25;;;;;;;9.52;6.53;;;15.50;99.90;;;;;;5055332;28;20383;-87
2023/09/07 04:34:56;;;;;;;8.85;6.90;;;15.40;99.90;;;;;;5055650;28;20025;-86
2023/09/07 04:37:25;;;;;;;7.20;6.38;;;15.40;99.90;;;;;;5041888;28;20039;-88
2023/09/07 04:39:55;;;;;;;9.65;6.65;;;15.40;99.90;;;;;;5059128;28;20028;-87
2023/09/07 04:42:22;;;;;;;14.55;8.13;;;15.40;99.90;;;;;;5058882;28;20567;-86
2023/09/07 04:44:48;;;;;;;11.50;6.65;;;15.30;99.90;;;;;;5058194;28;20074;-87
2023/09/07 04:47:15;;;;;;;12.20;7.05;;;15.30;99.90;;;;;;5058821;28;20028;-87
2023/09/07 04:49:41;;;;;;;12.02;8.25;;;15.30;99.90;;;;;;5059469;28;20029;-88
2023/09/07 04:52:08;;;;;;;15.45;7.97;;;15.30;99.90;;;;;;5060546;28;20136;-88
2023/09/07 04:54:34;;;;;;;12.50;7.38;;;15.30;99.90;;;;;;5060491;28;20120;-90
2023/09/07 04:57:00;;;;;;;12.82;7.75;;;15.30;99.90;;;;;;5059570;28;20048;-89
2023/09/07 04:59:26;;;;;;;15.52;8.05;;;15.20;99.90;;;;;;5060269;28;20032;-88
2023/09/07 05:01:51;;;;;;;13.07;7.80;;;15.20;99.90;;;;;;5059932;28;20033;-88
2023/09/07 05:04:17;;;;;;;13.38;7.90;;;15.20;99.90;;;;;;5060628;28;20087;-88
2023/09/07 05:06:43;;;;;;;11.45;7.07;;;15.10;99.90;;;;;;5060261;28;20031;-88
2023/09/07 05:09:09;;;;;;;12.40;7.75;;;15.10;99.90;;;;;;5060041;28;20074;-88
2023/09/07 05:11:35;;;;;;;13.48;7.60;;;15.10;99.90;;;;;;5060089;28;20028;-88
2023/09/07 05:14:02;;;;;;;9.48;6.60;;;15.00;99.90;;;;;;5059869;28;20039;-87
2023/09/07 05:16:28;;;;;;;9.63;7.10;;;15.10;99.90;;;;;;5060053;28;20029;-88
2023/09/07 05:18:54;;;;;;;11.88;7.03;;;15.10;99.90;;;;;;5043152;28;20472;-88
2023/09/07 05:21:20;;;;;;;8.95;7.15;;;15.20;99.90;;;;;;5060086;28;20056;-88
2023/09/07 05:23:46;;;;;;;9.65;7.15;;;15.30;99.90;;;;;;5060029;28;20036;-86
2023/09/07 05:26:12;;;;;;;12.93;7.30;;;15.40;99.90;;;;;;5060100;28;20028;-87
2023/09/07 05:28:41;;;;;;;8.80;7.13;;;15.30;99.90;;;;;;5059450;28;20029;-88
2023/09/07 05:31:07;;;;;;;12.07;7.45;;;15.40;99.90;;;;;;5076722;28;20115;-88
2023/09/07 05:33:33;;;;;;;17.20;7.43;;;15.40;99.90;;;;;;5059887;28;20388;-88
2023/09/07 05:36:01;;;;;;;9.73;6.85;;;15.40;99.90;;;;;;5060008;28;20017;-87
2023/09/07 05:38:27;;;;;;;10.00;6.80;;;15.50;99.90;;;;;;5059854;28;20028;-88
2023/09/07 05:40:54;;;;;;;11.27;7.53;;;15.60;99.90;;;;;;5058695;28;20028;-88
2023/09/07 05:43:21;;;;;;;10.80;7.15;;;15.70;99.90;;;;;;5059205;28;20028;-89
2023/09/07 05:45:47;;;;;;;8.35;6.65;;;15.90;99.90;;;;;;5059080;28;20375;-88
2023/09/07 05:48:16;;;;;;;11.20;7.55;;;16.00;99.90;;;;;;5059802;28;20028;-89
2023/09/07 05:50:42;;;;;;;8.20;6.75;;;16.10;99.90;;;;;;5043330;28;20131;-89
2023/09/07 05:53:08;;;;;;;11.43;7.00;;;16.10;99.90;;;;;;5059620;28;20025;-88
2023/09/07 05:55:34;;;;;;;13.77;7.07;;;16.20;99.90;;;;;;5059879;28;20025;-88
2023/09/07 05:58:05;;;;;;;11.13;6.82;;;16.30;99.90;;;;;;5059674;28;20025;-88
2023/09/07 06:00:32;;;;;;;10.48;7.93;;;16.40;99.90;;;;;;5059767;28;20495;-90
2023/09/07 06:02:58;;;;;;;11.82;6.93;;;16.40;99.90;;;;;;5060186;28;20091;-89
2023/09/07 06:05:24;;;;;;;14.18;7.50;;;16.50;99.90;;;;;;5059710;28;20025;-89
2023/09/07 06:07:51;;;;;;;11.73;6.85;;;16.60;99.90;;;;;;5058874;28;20086;-89
2023/09/07 06:10:19;;;;;;;11.02;6.47;;;16.70;99.90;;;;;;5059347;28;20118;-88
2023/09/07 06:12:45;;;;;;;10.60;7.03;;;16.70;99.90;;;;;;5059844;28;20543;-90
2023/09/07 06:15:11;;;;;;;10.40;6.70;;;16.80;99.90;;;;;;5059614;28;20435;-88
2023/09/07 06:17:37;;;;;;;9.85;6.55;;;16.90;99.90;;;;;;5059160;28;20052;-89
2023/09/07 06:20:03;;;;;;;11.93;6.10;;;16.90;99.90;;;;;;5059375;28;20031;-89
2023/09/07 06:22:29;;;;;;;11.55;6.70;;;17.10;99.90;;;;;;5042570;28;20012;-88
2023/09/07 06:24:55;;;;;;;7.50;6.65;;;17.20;99.90;;;;;;5059227;28;20025;-89
2023/09/07 06:27:21;;;;;;;10.88;7.20;;;17.20;99.90;;;;;;5057168;28;20078;-89
2023/09/07 06:29:47;;;;;;;12.77;6.78;;;17.30;99.90;;;;;;5058235;28;20438;-88
2023/09/07 06:32:13;;;;;;;19.40;6.25;;;17.50;99.90;;;;;;5058642;28;20029;-88
2023/09/07 06:34:39;;;;;;;11.00;6.15;;;17.50;99.90;;;;;;5059233;28;20104;-89
2023/09/07 06:37:05;;;;;;;10.13;6.57;;;17.60;99.90;;;;;;5058211;28;20498;-89
2023/09/07 06:39:31;;;;;;;8.88;6.18;;;17.70;99.90;;;;;;5058281;28;20021;-88
2023/09/07 06:41:57;;;;;;;9.75;6.60;;;17.80;99.90;;;;;;5058389;28;20100;-89
2023/09/07 06:44:28;;;;;;;11.02;6.53;;;17.80;99.90;;;;;;5058493;28;20037;-90
2023/09/07 06:46:54;;;;;;;11.15;6.38;;;17.80;99.90;;;;;;5058832;28;20124;-88
2023/09/07 06:49:19;;;;;;;15.07;6.47;;;17.90;99.90;;;;;;5058370;28;20025;-90
2023/09/07 06:51:48;;;;;;;11.30;5.88;;;18.00;99.90;;;;;;5058725;28;20024;-89
2023/09/07 06:54:14;;;;;;;15.88;7.22;;;18.10;99.90;;;;;;5058436;28;20116;-88
2023/09/07 06:56:41;;;;;;;8.55;6.10;;;18.10;99.90;;;;;;5059223;28;20028;-89
2023/09/07 06:59:07;;;;;;;9.02;6.40;;;18.20;99.90;;;;;;5042648;28;20133;-90
2023/09/07 07:01:33;;;;;;;10.57;6.22;;;18.20;99.90;;;;;;5058504;28;20063;-90
2023/09/07 07:03:59;;;;;;;7.25;5.90;;;18.30;99.90;;;;;;5058217;28;20033;-91
2023/09/07 07:06:26;;;;;;;8.75;6.15;;;18.30;99.90;;;;;;5057761;28;20362;-89
2023/09/07 07:08:52;;;;;;;8.13;5.85;;;18.40;99.90;;;;;;5058250;28;20099;-89
2023/09/07 07:11:18;;;;;;;6.60;5.43;;;18.50;99.90;;;;;;5057682;28;20127;-89
2023/09/07 07:13:43;;;;;;;13.35;6.65;;;18.50;99.90;;;;;;5057619;28;20048;-90
2023/09/07 07:16:10;;;;;;;11.50;5.82;;;18.60;99.90;;;;;;5057760;28;20094;-91
2023/09/07 07:18:36;;;;;;;8.02;5.90;;;18.60;99.90;;;;;;5057699;28;20510;-90
2023/09/07 07:21:03;;;;;;;10.90;6.30;;;18.70;99.90;;;;;;5058516;28;20123;-88
2023/09/07 07:23:29;;;;;;;6.57;5.38;;;18.80;99.90;;;;;;5057811;28;20056;-90
2023/09/07 07:25:55;;;;;;;9.13;6.65;;;18.80;99.90;;;;;;5057894;28;20032;-90
2023/09/07 07:28:23;;;;;;;7.57;5.90;;;18.80;99.90;;;;;;5057677;28;20055;-90
2023/09/07 07:30:52;;;;;;;8.65;6.00;;;18.90;99.90;;;;;;5057496;28;20074;-88
2023/09/07 07:33:18;;;;;;;9.05;5.40;;;18.90;99.90;;;;;;5059911;28;20040;-90
2023/09/07 07:35:43;;;;;;;11.20;6.40;;;19.00;99.90;;;;;;5057626;28;20025;-88
2023/09/07 07:38:13;;;;;;;8.80;6.20;;;19.00;99.90;;;;;;5057934;28;20029;-88
2023/09/07 07:40:40;;;;;;;9.52;6.75;;;19.10;99.90;;;;;;5074530;28;20494;-89
2023/09/07 07:43:06;;;;;;;15.73;5.82;;;19.10;99.90;;;;;;5041160;28;20502;-89
2023/09/07 07:45:36;;;;;;;8.75;5.85;;;19.20;99.90;;;;;;5057131;28;20116;-88
2023/09/07 07:48:05;;;;;;;7.03;5.97;;;19.30;99.90;;;;;;5057606;28;20035;-90
2023/09/07 07:50:39;;;;;;;9.90;6.43;;;19.30;99.90;;;;;;5057087;28;20031;-90
2023/09/07 07:53:12;;;;;;;10.75;5.53;;;19.30;99.90;;;;;;5058354;28;20036;-88
2023/09/07 07:55:40;;;;;;;10.02;6.85;;;19.40;99.90;;;;;;5057417;28;20036;-87
2023/09/07 07:58:10;;;;;;;14.23;5.97;;;19.40;99.90;;;;;;5058427;28;20052;-89
2023/09/07 08:00:38;;;;;;;9.70;5.82;;;19.50;99.90;;;;;;5041620;28;20453;-90
2023/09/07 08:03:07;;;;;;;10.65;5.72;;;19.50;99.90;;;;;;5040497;28;20028;-89
2023/09/07 08:05:35;;;;;;;9.43;6.35;;;19.50;99.90;;;;;;5057353;28;20056;-89
2023/09/07 08:08:01;;;;;;;11.75;5.60;;;19.60;99.90;;;;;;5056777;28;20475;-88
2023/09/07 08:10:28;;;;;;;10.55;6.05;;;19.70;99.90;;;;;;5055932;28;20035;-90
2023/09/07 08:12:55;;;;;;;8.23;6.32;;;19.70;99.90;;;;;;5056198;28;20087;-89
2023/09/07 08:15:22;;;;;;;8.95;6.05;;;19.70;99.90;;;;;;5040882;28;20064;-91
2023/09/07 08:17:49;;;;;;;8.20;5.85;;;19.70;99.90;;;;;;5056926;28;20119;-89
2023/09/07 08:20:16;;;;;;;13.18;6.43;;;19.80;99.90;;;;;;5056993;28;20025;-88
2023/09/07 08:22:42;;;;;;;16.15;5.82;;;19.90;99.90;;;;;;5056861;28;20024;-88
2023/09/07 08:25:10;;;;;;;12.95;6.50;;;19.90;99.90;;;;;;5056944;28;20025;-88
2023/09/07 08:27:35;;;;;;;7.80;6.25;;;19.90;99.90;;;;;;5073892;28;20020;-88
2023/09/07 08:30:01;;;;;;;9.85;5.65;;;20.00;99.90;;;;;;5057000;28;20032;-89
2023/09/07 08:32:27;;;;;;;6.28;5.65;;;20.00;99.90;;;;;;5056507;28;20039;-89
2023/09/07 08:34:56;;;;;;;10.25;6.35;;;20.10;99.90;;;;;;5056645;28;20082;-89
2023/09/07 08:37:22;;;;;;;8.18;6.28;;;20.20;99.90;;;;;;5057081;28;20032;-91
2023/09/07 08:39:48;;;;;;;13.07;5.90;;;20.20;99.90;;;;;;5059286;28;20055;-89
2023/09/07 08:42:14;;;;;;;11.85;6.50;;;20.20;99.90;;;;;;5056692;28;20025;-89
2023/09/07 08:44:42;;;;;;;8.77;6.07;;;20.20;99.90;;;;;;5040051;28;20419;-89
2023/09/07 08:47:18;;;;;;;8.88;5.93;;;20.30;99.90;;;;;;5040116;28;20340;-89
2023/09/07 08:49:47;;;;;;;8.10;6.18;;;20.60;99.90;;;;;;5056961;28;20016;-90
2023/09/07 08:52:14;;;;;;;8.00;5.82;;;22.00;99.90;;;;;;5040375;28;20044;-90
2023/09/07 08:54:48;;;;;;;10.65;5.38;;;23.30;99.90;;;;;;5040065;28;20069;-90
2023/09/07 08:57:14;;;;;;;7.47;4.68;;;24.40;99.90;;;;;;5039294;28;20499;-89
2023/09/07 08:59:40;;;;;;;7.22;5.03;;;25.10;99.90;;;;;;5040210;28;20035;-90
2023/09/07 09:02:10;;;;;;;9.23;4.88;;;25.50;99.90;;;;;;5039343;28;20476;-89
2023/09/07 09:04:37;;;;;;;6.70;5.50;;;25.80;99.90;;;;;;5074218;28;20098;-88
2023/09/07 09:07:03;;;;;;;7.82;4.60;;;27.00;99.90;;;;;;5040962;28;20052;-89
2023/09/07 09:09:30;;;;;;;7.43;4.82;;;27.50;99.90;;;;;;5040789;28;20036;-88
2023/09/07 09:12:12;;;;;;;6.03;4.90;;;27.90;99.90;;;;;;5056513;28;20032;-88
2023/09/07 09:14:42;;;;;;;7.53;4.80;;;26.60;99.90;;;;;;5056103;28;20032;-87
2023/09/07 09:17:12;;;;;;;7.13;5.28;;;25.80;99.90;;;;;;5056083;28;20028;-88
2023/09/07 09:19:38;;;;;;;9.40;4.65;;;25.90;99.90;;;;;;5057059;28;20035;-87
2023/09/07 09:22:04;;;;;;;6.35;4.65;;;26.80;99.90;;;;;;5056418;28;20123;-91
2023/09/07 09:24:34;;;;;;;6.35;4.65;;;27.40;99.90;;;;;;5060185;28;20020;-88
2023/09/07 09:27:00;;;;;;;7.07;4.40;;;27.40;99.90;;;;;;5043527;28;20032;-88
2023/09/07 09:29:27;;;;;;;9.93;4.45;;;27.40;99.90;;;;;;5060394;28;20041;-87
2023/09/07 09:31:53;;;;;;;5.88;4.65;;;26.80;99.90;;;;;;5060191;28;20052;-88
2023/09/07 09:34:20;;;;;;;5.82;4.80;;;26.20;99.90;;;;;;5060393;28;20360;-89
2023/09/07 09:36:46;;;;;;;4.43;3.90;;;25.80;99.90;;;;;;5060254;28;20082;-90
2023/09/07 09:39:24;;;;;;;12.35;4.72;;;25.40;99.90;;;;;;5060378;28;20606;-89
2023/09/07 09:42:10;;;;;;;5.32;4.38;;;25.10;99.90;;;;;;5060819;28;20361;-89
2023/09/07 09:44:37;;;;;;;6.93;4.43;;;25.20;99.90;;;;;;5060507;28;20024;-90
2023/09/07 09:47:03;;;;;;;10.60;4.88;;;25.40;99.90;;;;;;5044662;28;20435;-89
2023/09/07 09:49:29;;;;;;;11.38;4.70;;;25.80;99.90;;;;;;5061008;28;20068;-89
2023/09/07 09:51:58;;;;;;;6.13;3.80;;;26.20;99.90;;;;;;5044945;28;20360;-90
2023/09/07 09:54:26;;;;;;;7.70;4.80;;;26.70;99.90;;;;;;5044414;28;20028;-90
2023/09/07 09:57:16;;;;;;;10.93;4.40;;;27.30;99.90;;;;;;5043750;28;20089;-90
2023/09/07 09:59:44;;;;;;;12.13;4.35;;;27.60;99.90;;;;;;5060731;28;20048;-90
2023/09/07 10:02:10;;;;;;;6.65;4.50;;;27.70;99.90;;;;;;5061167;28;20041;-91
2023/09/07 10:04:37;;;;;;;7.80;4.20;;;28.30;99.90;;;;;;5043543;28;20028;-89
2023/09/07 10:07:05;;;;;;;5.13;4.25;;;28.20;99.90;;;;;;5043952;28;20039;-89
2023/09/07 10:09:34;;;;;;;11.52;4.28;;;28.30;99.90;;;;;;5059968;28;20029;-89
2023/09/07 10:12:03;;;;;;;7.60;4.13;;;28.40;99.90;;;;;;5042983;28;20033;-88
2023/09/07 10:14:41;;;;;;;5.78;4.45;;;28.20;99.90;;;;;;5042349;28;20081;-89
2023/09/07 10:17:08;;;;;;;9.63;4.40;;;28.00;99.90;;;;;;5042345;28;20024;-89
2023/09/07 10:19:36;;;;;;;6.35;4.40;;;28.10;99.90;;;;;;5058886;28;20025;-90
2023/09/07 10:22:03;;;;;;;6.57;4.40;;;27.80;99.90;;;;;;5058656;28;20114;-88
2023/09/07 10:24:39;;;;;;;6.70;4.55;;;28.00;99.90;;;;;;5058681;28;20028;-90
2023/09/07 10:27:10;;;;;;;9.32;5.22;;;28.00;99.90;;;;;;5058428;28;20028;-88
2023/09/07 10:29:42;;;;;;;4.90;4.40;;;27.80;99.90;;;;;;5042858;28;20037;-90
2023/09/07 10:32:14;;;;;;;6.97;4.20;;;28.40;99.90;;;;;;5058869;28;20028;-89
2023/09/07 10:34:43;;;;;;;5.18;4.30;;;28.20;97.70;;;;;;5041788;28;20020;-89
2023/09/07 10:37:13;;;;;;;8.27;4.38;;;28.40;98.30;;;;;;5042514;28;20025;-88
2023/09/07 10:39:44;;;;;;;4.53;4.05;;;27.80;99.90;;;;;;5076667;28;20021;-89
2023/09/07 10:42:26;;;;;;;5.63;4.18;;;28.30;99.90;;;;;;5058681;28;20369;-89
2023/09/07 10:44:51;;;;;;;5.28;4.05;;;28.20;99.00;;;;;;5058890;28;20037;-89
2023/09/07 10:47:17;;;;;;;6.28;4.35;;;28.00;97.80;;;;;;5058565;28;20124;-88
2023/09/07 10:49:43;;;;;;;8.20;4.72;;;28.10;98.80;;;;;;5059619;28;20555;-88
2023/09/07 10:52:09;;;;;;;8.80;4.68;;;28.20;98.80;;;;;;5058566;28;20056;-89
2023/09/07 10:54:35;;;;;;;8.02;4.22;;;28.10;98.50;;;;;;5058573;28;20422;-87
2023/09/07 10:57:13;;;;;;;5.57;3.80;;;28.20;98.30;;;;;;5058892;28;20029;-88
2023/09/07 10:59:44;;;;;;;6.40;4.85;;;28.10;97.10;;;;;;5058610;28;20029;-89
2023/09/07 11:02:15;;;;;;;7.53;4.20;;;28.10;96.40;;;;;;5058796;28;20041;-89
2023/09/07 11:04:42;;;;;;;6.10;4.38;;;28.40;98.30;;;;;;5058889;28;20032;-88
2023/09/07 11:07:08;;;;;;;5.60;4.22;;;28.20;97.00;;;;;;5058466;28;20044;-88
2023/09/07 11:09:33;;;;;;;9.73;4.95;;;28.50;97.80;;;;;;5058845;28;20102;-88
2023/09/07 11:12:06;;;;;;;4.93;4.30;;;28.70;96.60;;;;;;5058694;28;20043;-89
2023/09/07 11:14:32;;;;;;;7.72;3.85;;;29.00;95.90;;;;;;5042387;28;20044;-90
2023/09/07 11:16:57;;;;;;;6.88;4.20;;;29.40;97.00;;;;;;5059460;28;20094;-89
2023/09/07 11:19:23;;;;;;;14.82;4.82;;;29.90;96.00;;;;;;5058115;28;20036;-89
2023/09/07 11:21:51;;;;;;;8.13;4.10;;;29.80;96.00;;;;;;5058796;28;20024;-88
2023/09/07 11:24:17;;;;;;;9.68;4.80;;;30.20;95.20;;;;;;5058940;28;20037;-90
2023/09/07 11:26:47;;;;;;;7.47;4.03;;;30.20;94.40;;;;;;5041480;28;20094;-91
2023/09/07 11:29:18;;;;;;;3.83;3.30;;;30.30;94.50;;;;;;5041944;28;20028;-90
2023/09/07 11:31:47;;;;;;;;;;;30.80;94.00;;;;;;5041646;28;20035;-90
2023/09/07 11:34:15;;;;;;;6.57;3.95;;;31.30;93.30;;;;;;5059712;28;20275;-89
2023/09/07 11:36:41;;;;;;;6.68;4.53;;;31.10;92.60;;;;;;5058804;28;20029;-89
2023/09/07 11:39:13;;;;;;;7.07;4.18;;;30.80;93.90;;;;;;5042229;28;20028;-90
2023/09/07 11:41:44;;;;;;;5.60;4.57;;;31.00;94.00;;;;;;5041583;28;20033;-88
2023/09/07 11:44:10;;;;;;;6.07;3.97;;;31.50;91.80;;;;;;5058263;28;20032;-89
2023/09/07 11:46:37;;;;;;;8.80;4.40;;;31.00;92.60;;;;;;5074794;28;20075;-89
2023/09/07 11:49:08;;;;;;;10.75;3.97;;;30.70;92.30;;;;;;5042382;28;20044;-89
2023/09/07 11:52:00;;;;;;;5.70;4.55;;;30.60;92.40;;;;;;5058441;28;20515;-89
2023/09/07 11:54:26;;;;;;;5.60;4.00;;;30.40;92.10;;;;;;5041276;28;20041;-89
2023/09/07 11:56:52;;;;;;;8.00;4.78;;;30.00;92.80;;;;;;5058624;28;20064;-88
2023/09/07 11:59:18;;;;;;;7.68;3.88;;;29.80;92.10;;;;;;5058421;28;20075;-90
2023/09/07 12:01:44;;;;;;;5.40;4.40;;;29.80;93.30;;;;;;5058693;28;20032;-88
2023/09/07 12:04:09;;;;;;;10.43;4.43;;;29.90;93.50;;;;;;5058605;28;20027;-90
2023/09/07 12:06:36;;;;;;;8.57;4.85;;;29.70;93.20;;;;;;5058649;28;20025;-89
2023/09/07 12:09:11;;;;;;;7.45;4.40;;;29.80;93.00;;;;;;5058861;28;20064;-90
2023/09/07 12:11:37;;;;;;;6.43;4.25;;;29.80;93.40;;;;;;5058971;28;20021;-90
2023/09/07 12:14:05;;;;;;;8.57;4.32;;;30.20;93.90;;;;;;5059496;28;20387;-90
2023/09/07 12:16:31;;;;;;;7.20;4.05;;;30.80;92.90;;;;;;5059835;28;20048;-88
2023/09/07 12:18:56;;;;;;;6.97;4.15;;;30.90;92.20;;;;;;5079044;28;20040;-88
2023/09/07 12:21:22;;;;;;;5.00;3.85;;;30.70;92.40;;;;;;5080993;28;20013;-88
2023/09/07 12:23:48;;;;;;;9.60;4.70;;;30.40;91.30;;;;;;5080690;28;20017;-88
2023/09/07 12:26:16;;;;;;;11.32;5.00;;;29.90;91.40;;;;;;5078945;28;20063;-90
2023/09/07 12:28:42;;;;;;;7.05;4.10;;;29.90;92.60;;;;;;5059228;28;20032;-90
2023/09/07 12:31:08;;;;;;;9.77;4.43;;;30.20;92.40;;;;;;5060333;28;20029;-90
2023/09/07 12:33:34;;;;;;;8.18;4.20;;;30.20;92.50;;;;;;5043351;28;20032;-89
2023/09/07 12:36:00;;;;;;;8.15;4.30;;;30.00;92.80;;;;;;5059912;28;20032;-90
2023/09/07 12:38:28;;;;;;;21.30;4.25;;;29.60;92.60;;;;;;5059706;28;20059;-88
2023/09/07 12:40:54;;;;;;;7.57;4.28;;;29.50;92.20;;;;;;5059492;28;20119;-89
2023/09/07 12:43:20;;;;;;;6.97;4.40;;;29.30;92.80;;;;;;5060043;28;20539;-91
2023/09/07 12:45:46;;;;;;;8.88;4.50;;;29.30;91.40;;;;;;5058615;28;20114;-89